Loco Hills, New Mexico
Current Conditions -  °F | °C
As of 3:53 AM on Thursday 27 Nov 2014 (Local Time) from KCNM Reporting Station
Clear Clear  
Wind Chill: 30°   Ceiling: Unl
Heat Index: 36°   Visibility: 10mi
Dew Point: 26°   Wind: 7mph
Humidity: 67%   Direction: 160°SSE
Pressure: 30.39"   Gusts: NA
Location:  32.82°N, 103.98°W
Report Text: KCNM 271053Z AUTO 16006KT 10SM CLR 02/M03 A3039 RMK AO2 SLP271 T00221033
Loading
Personal Weather Stations






























Interactive Weather Map New forecast layout! Learn more

10-Day Weather Forecast

Advertisements
Track Severe Weather on mobile